Time;durP1;ratioP1;P1;durP2;ratioP2;P2;SDS_P1;SDS_P2;PMS_P1;PMS_P2;Temp;Humidity;BMP_temperature;BMP_pressure;BME280_temperature;BME280_humidity;BME280_pressure;Samples;Min_cycle;Max_cycle;Signal;HPM_P1;HPM_P2
2022/07/28 00:05:11;;;;;;;0.82;0.73;;;19.70;49.00;21.90;93771.00;;;;10479161;28;45191;-60
2022/07/28 00:10:32;;;;;;;0.85;0.70;;;19.70;49.00;21.90;93761.00;;;;10481163;28;45446;-60
2022/07/28 00:15:54;;;;;;;1.88;0.80;;;19.70;49.00;21.90;93766.00;;;;10463108;28;45463;-61
2022/07/28 00:21:15;;;;;;;1.05;0.73;;;19.70;49.00;21.90;93756.00;;;;10464982;28;45218;-61
2022/07/28 00:26:35;;;;;;;0.95;0.70;;;19.70;49.00;21.90;93734.00;;;;10475651;28;45283;-61
2022/07/28 00:31:57;;;;;;;0.80;0.70;;;19.70;49.00;21.80;93748.00;;;;10475998;28;45434;-60
2022/07/28 00:37:17;;;;;;;1.00;0.70;;;19.70;48.90;21.90;93730.00;;;;10463091;28;45451;-60
2022/07/28 00:42:38;;;;;;;0.82;0.57;;;19.70;48.90;21.90;93731.00;;;;10474814;28;45208;-60
2022/07/28 00:48:00;;;;;;;0.70;0.70;;;19.70;48.90;21.80;93740.00;;;;10475393;28;45581;-60
2022/07/28 00:53:21;;;;;;;1.10;0.60;;;19.70;48.90;21.80;93735.00;;;;10474817;28;45228;-60
2022/07/28 00:58:43;;;;;;;1.73;0.95;;;19.70;48.80;21.80;93732.00;;;;10473555;28;45297;-61
2022/07/28 01:04:06;;;;;;;1.25;0.63;;;19.70;48.80;21.80;93733.00;;;;10471231;28;45525;-61
2022/07/28 01:09:44;;;;;;;1.52;0.80;;;19.70;48.90;21.80;93720.00;;;;10484077;28;45488;-61
2022/07/28 01:15:16;;;;;;;0.82;0.52;;;19.60;48.80;21.80;93727.00;;;;10474009;28;45477;-60
2022/07/28 01:20:46;;;;;;;0.93;0.73;;;19.60;48.70;21.80;93719.00;;;;10474479;28;45163;-60
2022/07/28 01:26:28;;;;;;;0.90;0.68;;;19.70;48.80;21.80;93728.00;;;;10462579;28;45161;-60
2022/07/28 01:31:56;;;;;;;0.98;0.70;;;19.70;48.70;21.80;93728.00;;;;10474294;28;45220;-61
2022/07/28 01:37:25;;;;;;;0.60;0.50;;;19.60;48.60;21.80;93723.00;;;;10461055;28;45280;-60
2022/07/28 01:42:50;;;;;;;0.88;0.60;;;19.70;48.60;21.80;93716.00;;;;10472584;28;45276;-61
2022/07/28 01:48:15;;;;;;;0.82;0.63;;;19.60;48.60;21.80;93723.00;;;;10472872;28;45284;-60
2022/07/28 01:53:38;;;;;;;0.77;0.70;;;19.60;48.60;21.80;93722.00;;;;10473763;28;45183;-60
2022/07/28 01:59:05;;;;;;;0.85;0.70;;;19.60;48.50;21.80;93710.00;;;;10473610;28;45159;-60
2022/07/28 02:04:28;;;;;;;0.80;0.68;;;19.60;48.50;21.80;93707.00;;;;10477921;28;45147;-61
2022/07/28 02:09:50;;;;;;;0.90;0.70;;;19.60;48.50;21.80;93708.00;;;;10481064;28;45246;-60
2022/07/28 02:15:13;;;;;;;1.10;0.60;;;19.60;48.50;21.80;93698.00;;;;10472900;28;45501;-60
2022/07/28 02:20:36;;;;;;;2.17;0.80;;;19.60;48.50;21.80;93692.00;;;;10480071;28;45464;-60
2022/07/28 02:26:01;;;;;;;1.05;0.68;;;19.60;48.40;21.80;93709.00;;;;10467554;28;45229;-61
2022/07/28 02:31:28;;;;;;;2.47;0.60;;;19.60;48.50;21.70;93691.00;;;;10480555;28;45181;-60
2022/07/28 02:36:56;;;;;;;1.42;0.88;;;19.60;48.50;21.70;93703.00;;;;10480387;28;45466;-60
2022/07/28 02:42:23;;;;;;;1.13;0.70;;;19.60;48.50;21.70;93692.00;;;;10479287;28;45156;-60
2022/07/28 02:47:47;;;;;;;0.77;0.60;;;19.60;48.50;21.70;93693.00;;;;10479387;28;45178;-62
2022/07/28 02:53:10;;;;;;;1.17;0.68;;;19.60;48.60;21.70;93700.00;;;;10480072;28;45461;-61
2022/07/28 02:58:32;;;;;;;1.23;0.73;;;19.60;48.50;21.70;93703.00;;;;10466324;28;45227;-60
2022/07/28 03:03:53;;;;;;;1.08;0.88;;;19.60;48.50;21.70;93689.00;;;;10479288;28;45311;-60
2022/07/28 03:09:15;;;;;;;0.77;0.70;;;19.60;48.60;21.70;93698.00;;;;10483511;28;45175;-60
2022/07/28 03:14:36;;;;;;;0.95;0.80;;;19.60;48.60;21.70;93699.00;;;;10466991;28;45156;-61
2022/07/28 03:19:57;;;;;;;0.70;0.68;;;19.60;48.60;21.70;93709.00;;;;10479675;28;45142;-61
2022/07/28 03:25:26;;;;;;;0.85;0.85;;;19.60;48.70;21.70;93707.00;;;;10478621;28;45219;-61
2022/07/28 03:30:53;;;;;;;1.20;0.70;;;19.50;48.60;21.70;93709.00;;;;10465237;28;45224;-60
2022/07/28 03:36:17;;;;;;;;;;;19.60;48.70;21.70;93719.00;;;;10478487;28;45333;-60
2022/07/28 03:41:42;;;;;;;1.10;0.80;;;19.60;48.70;21.70;93710.00;;;;10478261;28;45132;-60
2022/07/28 03:47:02;;;;;;;1.20;0.88;;;19.50;48.60;21.70;93721.00;;;;10485810;28;45291;-61
2022/07/28 03:52:24;;;;;;;0.90;0.73;;;19.50;48.70;21.70;93727.00;;;;10478704;28;45423;-60
2022/07/28 03:57:46;;;;;;;1.10;0.70;;;19.50;48.70;21.70;93723.00;;;;10476156;28;45293;-60
2022/07/28 04:03:07;;;;;;;1.35;0.90;;;19.50;48.80;21.70;93721.00;;;;10473439;28;45163;-61
2022/07/28 04:08:28;;;;;;;1.52;0.93;;;19.50;48.80;21.70;93712.00;;;;10477233;28;45422;-60
2022/07/28 04:13:49;;;;;;;1.00;0.80;;;19.50;48.90;21.70;93709.00;;;;10476571;28;45221;-61
2022/07/28 04:19:10;;;;;;;1.30;0.82;;;19.50;48.80;21.70;93732.00;;;;10477304;28;45167;-62
2022/07/28 04:24:30;;;;;;;0.82;0.68;;;19.50;48.80;21.60;93737.00;;;;10465382;28;45200;-60
2022/07/28 04:29:52;;;;;;;1.63;1.00;;;19.50;48.90;21.60;93742.00;;;;10476807;28;45174;-60
2022/07/28 04:35:14;;;;;;;0.98;0.80;;;19.50;48.90;21.70;93731.00;;;;10476659;28;45184;-60
2022/07/28 04:40:34;;;;;;;1.65;1.05;;;19.50;48.90;21.60;93721.00;;;;10476121;28;45504;-61
2022/07/28 04:45:56;;;;;;;1.55;0.90;;;19.50;49.00;21.70;93734.00;;;;10494205;28;45614;-61
2022/07/28 04:51:17;;;;;;;1.48;0.85;;;19.50;48.90;21.70;93735.00;;;;10476562;28;45350;-61
2022/07/28 04:56:37;;;;;;;0.77;0.70;;;19.50;49.10;21.70;93736.00;;;;10475932;28;45441;-60
2022/07/28 05:01:59;;;;;;;1.17;0.90;;;19.50;49.10;21.60;93736.00;;;;10476221;28;45115;-61
2022/07/28 05:07:20;;;;;;;0.95;0.70;;;19.50;49.10;21.60;93739.00;;;;10475019;28;45261;-61
2022/07/28 05:12:41;;;;;;;0.80;0.80;;;19.50;49.20;21.50;93732.00;;;;10474564;28;45139;-60
2022/07/28 05:18:03;;;;;;;1.20;1.00;;;19.50;49.30;21.60;93733.00;;;;10478063;28;45381;-60
2022/07/28 05:23:24;;;;;;;1.35;0.90;;;19.50;50.00;21.60;93732.00;;;;10490998;28;45580;-61
2022/07/28 05:28:44;;;;;;;0.95;0.82;;;19.50;49.30;21.60;93734.00;;;;10477915;28;45270;-61
2022/07/28 05:34:06;;;;;;;1.73;1.05;;;19.50;49.40;21.70;93739.00;;;;10462618;28;45252;-60
2022/07/28 05:39:27;;;;;;;1.20;1.10;;;19.50;49.40;21.70;93727.00;;;;10474022;28;45177;-60
2022/07/28 05:44:48;;;;;;;2.85;1.10;;;19.50;49.50;21.70;93723.00;;;;10474575;28;45246;-61
2022/07/28 05:50:10;;;;;;;1.25;0.90;;;19.50;49.60;21.70;93728.00;;;;10462022;28;45425;-61
2022/07/28 05:55:31;;;;;;;1.63;1.00;;;19.50;49.60;21.60;93725.00;;;;10480188;28;45213;-61
2022/07/28 06:00:52;;;;;;;1.80;0.80;;;19.50;49.70;21.60;93721.00;;;;10481777;28;45184;-60
2022/07/28 06:06:13;;;;;;;0.93;0.70;;;19.50;49.70;21.70;93737.00;;;;10481763;28;45371;-60
2022/07/28 06:11:34;;;;;;;1.65;0.90;;;19.50;49.80;21.70;93736.00;;;;10481391;28;45307;-60
2022/07/28 06:16:55;;;;;;;1.40;0.90;;;19.50;49.80;21.60;93731.00;;;;10480787;28;45455;-60
2022/07/28 06:22:17;;;;;;;1.77;1.00;;;19.50;49.80;21.70;93731.00;;;;10491239;28;45275;-61
2022/07/28 06:27:37;;;;;;;1.63;1.00;;;19.50;49.90;21.60;93732.00;;;;10486489;28;45177;-61
2022/07/28 06:32:58;;;;;;;0.98;0.80;;;19.50;49.90;21.70;93716.00;;;;10480387;28;45410;-60
2022/07/28 06:38:20;;;;;;;1.55;1.00;;;19.50;50.00;21.70;93725.00;;;;10478445;28;45508;-60
2022/07/28 06:43:41;;;;;;;1.77;1.00;;;19.50;50.00;21.70;93720.00;;;;10463703;28;45466;-60
2022/07/28 06:49:02;;;;;;;1.00;0.90;;;19.50;50.70;21.70;93730.00;;;;10478203;28;45608;-60
2022/07/28 06:54:24;;;;;;;1.38;1.00;;;19.50;50.10;21.70;93730.00;;;;10478647;28;45586;-60
2022/07/28 06:59:45;;;;;;;2.65;1.20;;;19.50;50.20;21.70;93718.00;;;;10479969;28;45313;-62
2022/07/28 07:05:07;;;;;;;1.50;1.10;;;19.60;50.90;21.60;93729.00;;;;10479591;28;45270;-64
2022/07/28 07:10:29;;;;;;;3.10;1.40;;;19.60;51.00;21.60;93727.00;;;;10481324;28;45348;-63
2022/07/28 07:15:50;;;;;;;2.55;1.20;;;19.50;51.40;21.50;93718.00;;;;10480547;28;45146;-63
2022/07/28 07:21:10;;;;;;;3.92;1.40;;;19.50;51.60;21.50;93731.00;;;;10464253;28;45618;-63
2022/07/28 07:26:32;;;;;;;2.75;1.40;;;19.40;51.80;21.50;93717.00;;;;10492318;28;45294;-62
2022/07/28 07:31:53;;;;;;;1.63;0.98;;;19.40;52.00;21.50;93715.00;;;;10475004;28;45194;-62
2022/07/28 07:37:13;;;;;;;2.33;1.30;;;19.50;52.20;21.50;93723.00;;;;10472677;28;45156;-62
2022/07/28 07:42:35;;;;;;;1.30;1.02;;;19.40;52.30;21.50;93720.00;;;;10472423;28;45543;-62
2022/07/28 07:47:56;;;;;;;2.35;1.08;;;19.40;52.60;21.50;93714.00;;;;10473502;28;45564;-62
2022/07/28 07:53:16;;;;;;;2.45;1.17;;;19.40;52.60;21.50;93709.00;;;;10472252;28;45203;-62
2022/07/28 07:58:38;;;;;;;2.92;1.33;;;19.40;52.60;21.50;93710.00;;;;10471584;28;45282;-62
2022/07/28 08:03:59;;;;;;;2.17;1.05;;;19.40;52.70;21.50;93712.00;;;;10471609;28;45274;-62
2022/07/28 08:09:20;;;;;;;2.50;1.27;;;19.40;52.70;21.50;93711.00;;;;10471926;28;45262;-62
2022/07/28 08:14:42;;;;;;;1.65;1.10;;;19.40;52.80;21.50;93710.00;;;;10468857;28;45388;-62
2022/07/28 08:20:03;;;;;;;2.03;1.10;;;19.40;53.10;21.50;93717.00;;;;10472126;28;45344;-62
2022/07/28 08:25:24;;;;;;;3.22;1.30;;;19.30;53.20;21.50;93701.00;;;;10482616;28;45276;-62
2022/07/28 08:30:47;;;;;;;2.60;1.20;;;19.40;53.10;21.50;93709.00;;;;10471895;28;45565;-62
2022/07/28 08:36:07;;;;;;;3.38;1.17;;;19.40;53.00;21.50;93720.00;;;;10470455;28;45231;-62
2022/07/28 08:41:36;;;;;;;2.08;1.23;;;19.40;52.90;21.50;93720.00;;;;10470048;28;45362;-62
2022/07/28 08:46:59;;;;;;;2.28;1.30;;;19.40;53.00;21.50;93716.00;;;;10470240;28;45264;-62
2022/07/28 08:52:21;;;;;;;2.15;1.10;;;19.40;52.90;21.50;93708.00;;;;10471580;28;45366;-62
2022/07/28 08:57:43;;;;;;;1.48;1.10;;;19.40;53.00;21.50;93713.00;;;;10473413;28;45440;-62
2022/07/28 09:03:06;;;;;;;1.45;1.10;;;19.40;52.90;21.60;93713.00;;;;10474389;28;45175;-62
2022/07/28 09:08:26;;;;;;;1.85;1.23;;;19.40;52.60;21.70;93701.00;;;;10470760;28;45223;-63
2022/07/28 09:13:47;;;;;;;2.60;1.10;;;19.50;52.50;21.70;93718.00;;;;10473902;28;45387;-62
2022/07/28 09:19:09;;;;;;;1.65;1.13;;;19.50;52.40;21.70;93724.00;;;;10474242;28;45230;-63
2022/07/28 09:24:35;;;;;;;2.05;1.20;;;19.50;52.40;21.70;93714.00;;;;10486026;28;45299;-62
2022/07/28 09:30:00;;;;;;;1.98;1.10;;;19.60;52.50;21.70;93722.00;;;;10473426;28;45288;-62
2022/07/28 09:35:22;;;;;;;1.85;1.10;;;19.60;52.60;21.80;93707.00;;;;10473664;28;45459;-62
2022/07/28 09:40:55;;;;;;;1.58;0.95;;;19.60;52.60;21.80;93699.00;;;;10460909;28;45215;-63
2022/07/28 09:46:17;;;;;;;1.38;0.90;;;19.60;52.60;21.80;93701.00;;;;10471317;28;45564;-63
2022/07/28 09:51:39;;;;;;;1.77;0.90;;;19.60;52.70;21.80;93700.00;;;;10472959;28;45248;-62
2022/07/28 09:56:59;;;;;;;1.85;1.00;;;19.60;52.60;21.80;93704.00;;;;10472393;28;45489;-62
2022/07/28 10:02:24;;;;;;;2.30;1.20;;;19.60;52.70;21.80;93710.00;;;;10472691;28;45371;-62
2022/07/28 10:07:50;;;;;;;1.52;1.08;;;19.70;52.50;21.80;93704.00;;;;10471031;28;45234;-62
2022/07/28 10:13:10;;;;;;;1.80;1.20;;;19.70;52.90;21.80;93711.00;;;;10461948;28;45346;-62
2022/07/28 10:18:31;;;;;;;1.35;1.20;;;19.70;52.90;21.90;93694.00;;;;10472610;28;45582;-62
2022/07/28 10:23:57;;;;;;;1.55;1.10;;;19.70;52.90;21.90;93695.00;;;;10482537;28;45089;-62
2022/07/28 10:29:21;;;;;;;1.98;1.30;;;19.70;52.90;21.90;93687.00;;;;10458479;28;45469;-62
2022/07/28 10:34:49;;;;;;;2.85;1.40;;;19.70;52.90;21.90;93695.00;;;;10465809;28;45524;-62
2022/07/28 10:40:12;;;;;;;1.52;1.02;;;19.70;52.80;21.90;93682.00;;;;10469665;28;45284;-62
2022/07/28 10:45:34;;;;;;;3.08;1.30;;;19.70;52.70;21.90;93685.00;;;;10472614;28;45166;-62
2022/07/28 10:50:55;;;;;;;1.60;1.20;;;19.70;52.70;21.90;93698.00;;;;10474188;28;45230;-62
2022/07/28 10:56:27;;;;;;;1.40;1.10;;;19.70;52.70;21.90;93690.00;;;;10471371;28;45284;-62
2022/07/28 11:01:48;;;;;;;1.92;1.40;;;19.70;52.60;21.90;93665.00;;;;10467764;28;45288;-62
2022/07/28 11:07:13;;;;;;;1.88;1.20;;;19.70;52.60;21.90;93659.00;;;;10465413;28;45558;-62
2022/07/28 11:12:48;;;;;;;2.30;1.40;;;19.70;52.60;21.90;93656.00;;;;10472833;28;45267;-62
2022/07/28 11:18:10;;;;;;;1.67;1.20;;;19.70;52.50;21.90;93671.00;;;;10473110;28;45480;-62
2022/07/28 11:23:46;;;;;;;1.92;1.30;;;19.70;52.40;21.90;93652.00;;;;10470013;28;45516;-62
2022/07/28 11:29:24;;;;;;;1.17;1.00;;;19.70;52.50;21.90;93653.00;;;;10471909;28;45320;-62
2022/07/28 11:35:08;;;;;;;;;;;19.70;52.50;21.90;93668.00;;;;10471176;28;45224;-62
2022/07/28 11:40:31;;;;;;;1.52;1.10;;;19.70;52.50;21.80;93664.00;;;;10471441;28;45263;-62
2022/07/28 11:46:38;;;;;;;1.63;1.00;;;19.70;52.50;21.80;93667.00;;;;10472291;28;45412;-62
2022/07/28 11:52:22;;;;;;;1.98;1.02;;;19.70;52.40;21.80;93668.00;;;;10471636;28;45265;-62
2022/07/28 11:57:44;;;;;;;2.25;1.10;;;19.70;52.40;21.80;93660.00;;;;10471169;28;45413;-62
2022/07/28 12:03:06;;;;;;;1.98;1.27;;;19.70;52.40;21.90;93659.00;;;;10487096;28;45221;-62
2022/07/28 12:08:26;;;;;;;1.92;1.40;;;19.70;52.30;21.90;93667.00;;;;10468837;28;45348;-62
2022/07/28 12:13:47;;;;;;;1.48;1.05;;;19.70;52.30;22.00;93663.00;;;;10470982;28;45240;-62
2022/07/28 12:19:11;;;;;;;1.20;1.10;;;19.80;52.10;22.10;93667.00;;;;10471080;28;45248;-62
2022/07/28 12:24:34;;;;;;;2.42;1.00;;;19.90;52.80;22.10;93652.00;;;;10459463;28;45533;-62
2022/07/28 12:29:57;;;;;;;2.00;1.02;;;19.90;51.90;22.10;93652.00;;;;10470634;28;45180;-63
2022/07/28 12:35:20;;;;;;;2.40;1.13;;;20.00;51.80;22.10;93632.00;;;;10470195;28;45289;-63
2022/07/28 12:40:41;;;;;;;1.90;1.20;;;20.00;51.70;22.20;93633.00;;;;10470390;28;45244;-63
2022/07/28 12:46:02;;;;;;;1.13;0.95;;;20.00;51.40;22.20;93626.00;;;;10469635;28;45214;-62
2022/07/28 12:51:35;;;;;;;1.35;1.02;;;20.00;51.20;22.20;93618.00;;;;10470568;28;45154;-62
2022/07/28 12:56:56;;;;;;;2.03;1.10;;;20.00;51.30;22.20;93624.00;;;;10469504;28;45550;-62
2022/07/28 13:02:16;;;;;;;1.73;1.00;;;20.00;51.20;22.30;93616.00;;;;10475204;28;45418;-62
2022/07/28 13:07:38;;;;;;;1.60;0.98;;;20.10;51.30;22.30;93610.00;;;;10470420;28;45323;-62
2022/07/28 13:13:04;;;;;;;2.05;1.05;;;20.10;51.30;22.20;93598.00;;;;10469781;28;45295;-62
2022/07/28 13:18:39;;;;;;;1.90;1.00;;;20.00;51.30;22.20;93611.00;;;;10469223;28;45406;-62
2022/07/28 13:24:01;;;;;;;1.10;1.00;;;20.00;52.00;22.20;93600.00;;;;10469067;28;45251;-62
2022/07/28 13:29:22;;;;;;;1.65;1.08;;;20.00;51.30;22.20;93594.00;;;;10469204;28;45219;-63
2022/07/28 13:34:43;;;;;;;4.68;1.10;;;20.00;51.30;22.30;93595.00;;;;10469297;28;45241;-63
2022/07/28 13:40:07;;;;;;;1.80;1.00;;;20.10;51.20;22.40;93592.00;;;;10469160;28;45261;-63
2022/07/28 13:45:29;;;;;;;1.20;1.10;;;20.20;51.20;22.30;93591.00;;;;10468412;28;45276;-63
2022/07/28 13:50:49;;;;;;;1.48;0.90;;;20.20;51.40;22.30;93576.00;;;;10469493;28;45507;-63
2022/07/28 13:56:11;;;;;;;1.65;1.10;;;20.20;51.30;22.30;93571.00;;;;10467684;28;45306;-62
2022/07/28 14:01:31;;;;;;;2.58;1.00;;;20.20;51.40;22.30;93568.00;;;;10472108;28;45154;-62
2022/07/28 14:06:52;;;;;;;2.17;0.90;;;20.20;51.30;22.40;93574.00;;;;10475888;28;45307;-63
2022/07/28 14:12:14;;;;;;;1.10;0.95;;;20.20;51.20;22.40;93571.00;;;;10468204;28;45239;-63
2022/07/28 14:17:35;;;;;;;2.40;1.00;;;20.30;51.30;22.40;93562.00;;;;10472163;28;45169;-63
2022/07/28 14:22:57;;;;;;;1.80;1.20;;;20.20;51.20;22.50;93552.00;;;;10472501;28;45384;-63
2022/07/28 14:28:18;;;;;;;1.75;1.05;;;20.30;51.20;22.50;93558.00;;;;10474668;28;45204;-64
2022/07/28 14:33:39;;;;;;;1.00;0.90;;;20.30;51.20;22.50;93555.00;;;;10474935;28;45277;-63
2022/07/28 14:39:00;;;;;;;2.13;1.20;;;20.30;51.20;22.50;93558.00;;;;10474599;28;45281;-62
2022/07/28 14:44:22;;;;;;;1.80;1.00;;;20.30;51.20;22.50;93551.00;;;;10474620;28;45176;-62
2022/07/28 14:49:42;;;;;;;1.15;0.90;;;20.30;51.20;22.50;93550.00;;;;10474483;28;45147;-61
2022/07/28 14:55:04;;;;;;;2.15;0.90;;;20.40;51.20;22.60;93548.00;;;;10473621;28;45239;-61
2022/07/28 15:00:27;;;;;;;1.20;1.00;;;20.40;51.30;22.60;93549.00;;;;10477800;28;45412;-61
2022/07/28 15:05:47;;;;;;;1.20;0.90;;;20.40;51.30;22.60;93546.00;;;;10499571;28;45248;-62
2022/07/28 15:11:08;;;;;;;1.23;0.82;;;20.40;51.30;22.60;93547.00;;;;10467130;28;45192;-62
2022/07/28 15:16:30;;;;;;;2.28;1.20;;;20.40;51.30;22.60;93554.00;;;;10484957;28;45620;-62
2022/07/28 15:21:50;;;;;;;2.33;1.30;;;20.40;51.40;22.60;93542.00;;;;10476747;28;45339;-61
2022/07/28 15:27:11;;;;;;;5.22;1.80;;;20.40;51.40;22.50;93535.00;;;;10473267;28;45172;-63
2022/07/28 15:32:33;;;;;;;2.58;1.67;;;20.40;51.30;22.60;93521.00;;;;10477060;28;45226;-61
2022/07/28 15:37:54;;;;;;;3.28;1.40;;;20.40;52.00;22.60;93528.00;;;;10470895;28;45363;-63
2022/07/28 15:43:15;;;;;;;1.98;1.60;;;20.40;51.30;22.60;93529.00;;;;10494803;28;45433;-62
2022/07/28 15:48:39;;;;;;;3.72;1.55;;;20.40;51.20;22.60;93538.00;;;;10477068;28;45132;-62
2022/07/28 15:54:00;;;;;;;4.30;1.40;;;20.40;51.40;22.50;93540.00;;;;10477753;28;45354;-64
2022/07/28 15:59:21;;;;;;;1.67;1.30;;;20.40;51.40;22.50;93540.00;;;;10472350;28;45243;-63
2022/07/28 16:04:43;;;;;;;1.90;1.70;;;20.30;51.40;22.50;93541.00;;;;10475820;28;45482;-62
2022/07/28 16:10:05;;;;;;;2.20;1.48;;;20.30;51.40;22.50;93525.00;;;;10478805;28;45287;-62
2022/07/28 16:15:26;;;;;;;2.78;1.50;;;20.30;51.50;22.50;93529.00;;;;10477419;28;44681;-62
2022/07/28 16:20:47;;;;;;;4.63;1.70;;;20.30;51.40;22.50;93529.00;;;;10478877;28;45185;-62
2022/07/28 16:26:09;;;;;;;2.67;1.67;;;20.30;51.50;22.40;93518.00;;;;10471574;28;45232;-61
2022/07/28 16:31:30;;;;;;;3.33;1.80;;;20.30;51.60;22.50;93519.00;;;;10479805;28;45317;-61
2022/07/28 16:36:52;;;;;;;1.95;1.48;;;20.30;51.60;22.40;93531.00;;;;10471254;28;45211;-61
2022/07/28 16:42:13;;;;;;;1.92;1.58;;;20.20;51.60;22.40;93534.00;;;;10486287;28;45227;-62
2022/07/28 16:47:34;;;;;;;2.78;1.67;;;20.30;51.70;22.40;93542.00;;;;10469954;28;45267;-61
2022/07/28 16:52:56;;;;;;;2.20;1.65;;;20.20;51.70;22.40;93550.00;;;;10470137;28;45223;-61
2022/07/28 16:58:18;;;;;;;2.05;1.60;;;20.20;51.70;22.30;93553.00;;;;10469257;28;45463;-62
2022/07/28 17:03:39;;;;;;;1.90;1.52;;;20.20;51.80;22.30;93557.00;;;;10482866;28;45472;-61
2022/07/28 17:09:00;;;;;;;1.77;1.40;;;20.20;51.90;22.30;93564.00;;;;10467779;28;45279;-62
2022/07/28 17:14:21;;;;;;;2.63;1.77;;;20.20;51.90;22.30;93581.00;;;;10473289;28;45203;-61
2022/07/28 17:19:44;;;;;;;3.10;1.60;;;20.20;51.90;22.30;93584.00;;;;10483894;28;45144;-62
2022/07/28 17:25:07;;;;;;;3.10;1.70;;;20.20;52.00;22.30;93594.00;;;;10467998;28;45308;-61
2022/07/28 17:30:30;;;;;;;2.03;1.65;;;20.10;52.00;22.30;93606.00;;;;10466392;28;45248;-62
2022/07/28 17:35:51;;;;;;;2.88;1.52;;;20.10;52.00;22.30;93593.00;;;;10481003;28;45391;-62
2022/07/28 17:41:13;;;;;;;1.50;1.38;;;20.10;52.10;22.30;93613.00;;;;10468862;28;45208;-62
2022/07/28 17:46:34;;;;;;;1.73;1.55;;;20.10;52.10;22.30;93602.00;;;;10468669;28;45655;-62
2022/07/28 17:51:55;;;;;;;1.70;1.30;;;20.10;52.10;22.20;93615.00;;;;10476567;28;45275;-62
2022/07/28 17:57:17;;;;;;;1.67;1.38;;;20.00;52.10;22.30;93613.00;;;;10475316;28;45171;-61
2022/07/28 18:02:37;;;;;;;1.92;1.60;;;20.10;52.20;22.20;93611.00;;;;10475672;28;45196;-61
2022/07/28 18:07:58;;;;;;;1.90;1.60;;;20.00;52.10;22.20;93603.00;;;;10474147;28;45588;-61
2022/07/28 18:13:20;;;;;;;1.85;1.60;;;20.00;52.20;22.20;93607.00;;;;10474400;28;45313;-61
2022/07/28 18:18:41;;;;;;;1.73;1.50;;;20.00;52.20;22.20;93609.00;;;;10481773;28;45473;-61
2022/07/28 18:24:01;;;;;;;2.78;1.58;;;20.00;52.90;22.20;93609.00;;;;10480370;28;45306;-61
2022/07/28 18:29:23;;;;;;;1.85;1.60;;;20.00;52.30;22.20;93616.00;;;;10460097;28;45579;-61
2022/07/28 18:34:44;;;;;;;1.70;1.38;;;20.00;52.40;22.20;93624.00;;;;10473728;28;45164;-62
2022/07/28 18:40:06;;;;;;;2.33;1.60;;;20.00;52.40;22.20;93642.00;;;;10475073;28;45243;-62
2022/07/28 18:45:28;;;;;;;2.70;1.45;;;20.00;52.30;22.20;93656.00;;;;10474437;28;45437;-62
2022/07/28 18:50:48;;;;;;;1.85;1.20;;;20.00;52.30;22.20;93659.00;;;;10474956;28;45235;-62
2022/07/28 18:56:09;;;;;;;1.67;1.30;;;20.00;52.30;22.20;93642.00;;;;10472419;28;45203;-62
2022/07/28 19:01:31;;;;;;;1.27;1.17;;;20.00;52.30;22.20;93666.00;;;;10471971;28;45286;-61
2022/07/28 19:06:51;;;;;;;1.52;1.30;;;20.00;52.30;22.20;93646.00;;;;10473238;28;46211;-62
2022/07/28 19:12:11;;;;;;;1.63;1.23;;;20.00;52.40;22.20;93665.00;;;;10473973;28;45184;-61
2022/07/28 19:17:33;;;;;;;1.40;1.30;;;20.00;52.40;22.20;93681.00;;;;10474217;28;45230;-62
2022/07/28 19:22:54;;;;;;;1.77;1.40;;;20.00;52.40;22.20;93696.00;;;;10493869;28;45363;-62
2022/07/28 19:28:15;;;;;;;1.98;1.60;;;20.00;52.40;22.10;93714.00;;;;10473205;28;45291;-62
2022/07/28 19:33:37;;;;;;;1.50;1.30;;;20.00;52.40;22.10;93706.00;;;;10475270;28;45367;-61
2022/07/28 19:38:58;;;;;;;1.75;1.38;;;19.90;52.40;22.10;93725.00;;;;10466022;28;45217;-62
2022/07/28 19:44:18;;;;;;;2.00;1.40;;;19.90;52.40;22.10;93728.00;;;;10477541;28;45255;-61
2022/07/28 19:49:40;;;;;;;1.50;1.40;;;19.90;52.50;22.10;93753.00;;;;10472457;28;45386;-63
2022/07/28 19:55:01;;;;;;;1.98;1.45;;;20.00;52.50;22.10;93754.00;;;;10472493;28;45274;-61
2022/07/28 20:00:21;;;;;;;1.42;1.30;;;19.90;52.60;22.10;93764.00;;;;10471192;28;45236;-62
2022/07/28 20:05:44;;;;;;;1.65;1.20;;;19.90;52.60;22.10;93765.00;;;;10479671;28;46085;-62
2022/07/28 20:11:05;;;;;;;1.50;1.30;;;19.90;52.60;22.10;93779.00;;;;10470183;28;45319;-63
2022/07/28 20:16:25;;;;;;;1.70;1.48;;;19.90;52.60;22.10;93788.00;;;;10467015;28;45266;-62
2022/07/28 20:21:47;;;;;;;1.40;1.30;;;19.90;52.60;22.10;93789.00;;;;10486899;28;45457;-63
2022/07/28 20:27:08;;;;;;;1.50;1.40;;;19.90;52.60;22.10;93802.00;;;;10473820;28;45512;-62
2022/07/28 20:32:29;;;;;;;1.70;1.50;;;19.90;52.60;22.10;93801.00;;;;10470999;28;45207;-63
2022/07/28 20:37:50;;;;;;;1.45;1.35;;;19.90;52.70;22.00;93801.00;;;;10470289;28;45207;-62
2022/07/28 20:43:11;;;;;;;1.60;1.10;;;19.90;52.70;22.10;93798.00;;;;10470826;28;45230;-62
2022/07/28 20:48:32;;;;;;;1.63;1.20;;;19.90;52.70;22.10;93792.00;;;;10471223;28;45419;-63
2022/07/28 20:53:54;;;;;;;2.42;1.50;;;19.90;52.80;22.10;93809.00;;;;10470381;28;45163;-62
2022/07/28 20:59:14;;;;;;;1.83;1.40;;;19.90;52.80;22.10;93822.00;;;;10470114;28;45238;-62
2022/07/28 21:04:35;;;;;;;1.58;1.40;;;19.90;52.80;22.10;93830.00;;;;10469565;28;45374;-62
2022/07/28 21:09:57;;;;;;;2.10;1.50;;;19.90;52.80;22.10;93838.00;;;;10470023;28;45198;-63
2022/07/28 21:15:19;;;;;;;1.58;1.20;;;19.80;52.80;22.10;93834.00;;;;10458849;28;45369;-62
2022/07/28 21:20:40;;;;;;;1.67;1.30;;;19.80;52.90;22.10;93851.00;;;;10476833;28;45177;-62
2022/07/28 21:26:07;;;;;;;1.42;1.30;;;19.90;52.90;22.10;93858.00;;;;10479830;28;45243;-62
2022/07/28 21:31:28;;;;;;;1.92;1.42;;;19.80;52.90;22.00;93825.00;;;;10469909;28;45314;-62
2022/07/28 21:36:48;;;;;;;1.38;1.25;;;19.80;52.90;22.00;93836.00;;;;10469001;28;45278;-61
2022/07/28 21:42:10;;;;;;;1.50;1.40;;;19.80;52.90;22.00;93845.00;;;;10469100;28;45228;-61
2022/07/28 21:47:30;;;;;;;1.80;1.30;;;19.80;53.00;22.00;93837.00;;;;10468591;28;45211;-62
2022/07/28 21:52:51;;;;;;;1.73;1.40;;;19.80;53.00;22.00;93848.00;;;;10469534;28;45523;-61
2022/07/28 21:58:14;;;;;;;1.67;1.20;;;19.80;53.30;22.00;93851.00;;;;10468119;28;45150;-61
2022/07/28 22:03:36;;;;;;;1.90;1.17;;;19.80;53.00;22.00;93858.00;;;;10468645;28;45169;-61
2022/07/28 22:08:56;;;;;;;1.15;1.05;;;19.90;53.10;22.00;93865.00;;;;10467276;28;45151;-61
2022/07/28 22:14:18;;;;;;;1.25;1.15;;;19.80;53.10;22.00;93860.00;;;;10467831;28;45235;-61
2022/07/28 22:19:39;;;;;;;1.60;1.30;;;19.80;53.10;22.00;93858.00;;;;10468568;28;45225;-62
2022/07/28 22:24:59;;;;;;;1.40;1.30;;;19.80;53.20;22.00;93854.00;;;;10469582;28;45223;-61
2022/07/28 22:30:21;;;;;;;1.80;1.30;;;19.80;53.20;22.00;93860.00;;;;10468056;28;45191;-61
2022/07/28 22:35:42;;;;;;;1.10;1.00;;;19.80;53.20;22.00;93870.00;;;;10471841;28;45295;-61
2022/07/28 22:41:04;;;;;;;1.40;1.30;;;19.80;53.30;22.00;93862.00;;;;10475116;28;45211;-61
2022/07/28 22:46:26;;;;;;;1.70;1.10;;;19.80;53.20;22.00;93867.00;;;;10475109;28;45502;-61
2022/07/28 22:51:47;;;;;;;1.40;1.23;;;19.80;53.20;22.00;93864.00;;;;10469080;28;45093;-62
2022/07/28 22:57:08;;;;;;;1.30;1.10;;;19.80;53.30;22.00;93875.00;;;;10472156;28;45266;-62
2022/07/28 23:02:29;;;;;;;1.38;1.20;;;19.80;53.20;22.00;93875.00;;;;10488161;28;45259;-61
2022/07/28 23:07:50;;;;;;;1.33;1.15;;;19.80;53.30;22.00;93876.00;;;;10473201;28;45539;-61
2022/07/28 23:13:10;;;;;;;1.88;1.50;;;19.80;53.40;22.00;93876.00;;;;10473313;28;45698;-61
2022/07/28 23:18:32;;;;;;;1.30;1.08;;;19.80;53.50;22.00;93862.00;;;;10473365;28;45257;-61
2022/07/28 23:23:53;;;;;;;1.20;1.00;;;19.80;53.40;22.00;93861.00;;;;10473764;28;45359;-61
2022/07/28 23:29:14;;;;;;;1.60;1.20;;;19.80;53.50;22.00;93864.00;;;;10474004;28;45265;-61
2022/07/28 23:34:36;;;;;;;1.20;1.10;;;19.80;53.40;22.00;93853.00;;;;10472850;28;45140;-61
2022/07/28 23:39:56;;;;;;;1.20;0.93;;;19.80;53.60;22.00;93866.00;;;;10473501;28;45488;-61